Capitol Logistics 1887

Operating for CJT



EGLL
London Heathrow Airport
London, GB
CYHM
John C. Munro Hamilton International Airport
Hamilton, CA

Route Details

Aircraft Information
Group: Trans-Atlantic Ops
Types: A31F,B744,B763,MD11
Route Data
Demand: M
Distance: 3114nm
Duration: 6h 58m
Recm'd Route: CPT WAL M146 ROBOP M147 MAGEE GOMUP 5920N 5930N 5840N 5650N JANJO ANCER DICEN T636 KANUR T614 DEBUM YYZ UDMIK3
Origin Wx: EGLL 270620Z AUTO 30009KT 260V330 9999 BKN016 BKN022 BKN026 14/10 Q1024 NOSIG
Dest. Wx: CYHM 270600Z 23006KT 15SM -RA BKN017 OVC055 19/18 A2979 RMK SC6SC2 SLP086 DENSITY ALT 1600FT
Notes:

Financial History
Total Freight: 50,222lbs
Average Load: 50,222lbs/flt
Fuel Used: 0lbs
Avg. Fuel Used: 0lbs/flt
Fuel Expense: $0
Avg. Fuel Expense: $0
Avg. Fuel Cost: $0.20/lbs
Total Gross Income: $103,658
Pilot Pay: $259
Total Expenses: $12,889
Total Revenue: $90,769
Average Revenue: $103,658.21